PARDEE (PAR)

Elevation: 568' · MOKELUMNE R basin · Operator: East Bay Municipal Utility District

Provisional data, subject to change.
Query executed Monday at 13:16:12   clock

Select a sensor type for a plot of data.
Note: Reservoir Flows are daily averages.

Earlier

Date RES ELE    STORAGE    RES CHG    OUTFLOW    INFLOW    PPT INC   
 FEET   AF   AF   CFS   CFS   INCHES  
05/28/2016 567.27 197095 164 1595 1714 0.00
05/29/2016 567.07 196665 -430 1607 1635 0.00
05/30/2016 566.94 196386 -279 1587 1462 0.00
05/31/2016 566.78 196015 -371 1601 1492 0.00
06/01/2016 566.90 196285 270 1633 1571 0.00
06/02/2016 567.29 197138 853 1635 1777 0.00
06/03/2016 567.75 198148 1010 1633 1974 0.00
06/04/2016 567.91 198525 377 1630 1957 0.00
06/05/2016 567.96 198634 109 1630 1709 0.00
06/06/2016 568.02 198773 139 1922 1807 0.00
06/07/2016 567.97 198653 -120 1968 2010 0.00
06/08/2016 567.90 198497 -156 1876 1883 0.00
06/09/2016 567.92 198549 52 1827 1783 0.00
06/10/2016 567.91 198516 -33 1871 1901 0.00
06/11/2016 567.87 198422 -94 1826 1877 0.00
06/12/2016 567.90 198497 75 1711 1770 0.00
06/13/2016 567.86 198407 -90 1783 1751 0.00
06/14/2016 567.74 198106 -301 21121 21084 0.00
06/15/2016 567.49 197559 -547 1763 1601 0.00
06/16/2016 566.90 196293 -1266 1846 1586 0.00
06/17/2016 566.41 195215 -1078 1673 1345 0.00
06/18/2016 565.77 193792 -1423 1666 1253 0.00
06/19/2016 565.02 192158 -1634 1682 1163 0.00
06/20/2016 564.33 190656 -1502 1674 1139 0.00
06/21/2016 563.62 189111 -1545 1648 1186 0.00
06/22/2016 563.08 187944 -1167 1506 1097 0.00
06/23/2016 562.85 187459 -485 1102 532 0.00
06/24/2016 562.64 187018 -441 1109 578 0.00
06/25/2016 563.02 187815 797 285 257 0.00
06/26/2016 563.49 188830 1015 284 595 0.00
06/27/2016 -- -- -- -- -- --

Later | Latest

Warning! This data is preliminary and subject to revision.

Show PAR Map | Plot PAR Data | 1 Month PAR Data | Real-Time PAR Data | PAR Info